createdAt,value
2023-03-29T00:00:16.688Z,-1.37
2023-03-29T00:01:36.143Z,-1.22
2023-03-29T00:02:38.083Z,-1.23
2023-03-29T00:03:40.346Z,-1.21
2023-03-29T00:04:42.026Z,-1.23
2023-03-29T00:05:44.772Z,-1.17
2023-03-29T00:06:47.845Z,-1.15
2023-03-29T00:08:01.641Z,-1.14
2023-03-29T00:09:05.727Z,-1.11
2023-03-29T00:10:09.960Z,-1.06
2023-03-29T00:11:12.497Z,-1.05
2023-03-29T00:12:14.016Z,-0.97
2023-03-29T00:13:15.761Z,-1.02
2023-03-29T00:14:17.178Z,-0.94
2023-03-29T00:15:19.277Z,-0.92
2023-03-29T00:16:20.895Z,-0.91
2023-03-29T00:17:22.682Z,-0.76
2023-03-29T00:18:24.219Z,-0.73
2023-03-29T00:19:25.894Z,-0.70
2023-03-29T00:20:28.770Z,-0.69
2023-03-29T00:21:30.639Z,-0.71
2023-03-29T00:22:32.145Z,-0.62
2023-03-29T00:23:33.580Z,-0.58
2023-03-29T00:24:35.219Z,-0.63
2023-03-29T00:25:36.644Z,-0.64
2023-03-29T00:26:38.092Z,-0.65
2023-03-29T00:27:40.353Z,-0.65
2023-03-29T00:28:41.976Z,-0.65
2023-03-29T00:29:43.472Z,-0.68
2023-03-29T00:30:45.455Z,-0.59
2023-03-29T00:31:53.577Z,-0.59
2023-03-29T00:32:54.956Z,-0.60
2023-03-29T00:33:56.729Z,-0.61
2023-03-29T00:35:00.770Z,-0.59
2023-03-29T00:36:03.910Z,-0.60
2023-03-29T00:37:08.606Z,-0.59
2023-03-29T00:38:10.071Z,-0.65
2023-03-29T00:39:11.472Z,-0.63
2023-03-29T00:40:13.459Z,-0.65
2023-03-29T00:41:15.165Z,-0.65
2023-03-29T00:42:17.493Z,-0.66
2023-03-29T00:43:19.074Z,-0.63
2023-03-29T00:45:11.852Z,-0.56
2023-03-29T00:46:13.443Z,-0.49
2023-03-29T00:47:16.230Z,-0.44
2023-03-29T00:48:21.921Z,-0.46
2023-03-29T00:49:23.398Z,-0.45
2023-03-29T00:50:32.207Z,-0.44
2023-03-29T00:51:36.634Z,-0.36
2023-03-29T00:52:39.613Z,-0.37
2023-03-29T00:53:49.128Z,-0.23
2023-03-29T00:54:55.353Z,-0.22
2023-03-29T00:56:02.385Z,-0.23
2023-03-29T00:57:04.780Z,-0.24
2023-03-29T00:58:08.682Z,-0.27
2023-03-29T00:59:13.761Z,-0.23
2023-03-29T01:00:20.768Z,-0.17
2023-03-29T01:01:34.104Z,-0.18
2023-03-29T01:02:39.805Z,-0.19
2023-03-29T01:03:46.961Z,-0.14
2023-03-29T01:04:57.909Z,-0.12
2023-03-29T01:06:09.111Z,-0.12
2023-03-29T01:07:25.467Z,-0.08
2023-03-29T01:08:32.637Z,-0.10
2023-03-29T01:09:38.102Z,-0.08
2023-03-29T01:10:49.542Z,-0.04
2023-03-29T01:11:56.940Z,0.00
2023-03-29T01:13:04.793Z,0.02
2023-03-29T01:14:15.242Z,0.02
2023-03-29T01:15:21.110Z,0.07
2023-03-29T01:16:25.715Z,0.10
2023-03-29T01:17:27.229Z,0.18
2023-03-29T01:18:31.317Z,0.19
2023-03-29T01:19:40.297Z,0.26
2023-03-29T01:21:15.225Z,0.27
2023-03-29T01:22:29.586Z,0.20
2023-03-29T01:24:12.484Z,0.25
2023-03-29T01:25:26.167Z,0.28
2023-03-29T01:26:42.840Z,0.27
2023-03-29T01:28:06.295Z,0.21
2023-03-29T01:29:12.728Z,0.20
2023-03-29T01:30:37.285Z,0.15
2023-03-29T01:31:44.260Z,0.12
2023-03-29T01:32:52.401Z,0.12
2023-03-29T01:34:32.630Z,0.22
2023-03-29T01:35:45.724Z,0.19
2023-03-29T01:37:00.289Z,0.11
2023-03-29T01:38:09.538Z,0.07
2023-03-29T01:39:11.084Z,0.13
2023-03-29T01:40:12.627Z,0.10
2023-03-29T01:41:14.398Z,0.07
2023-03-29T01:42:39.689Z,0.08
2023-03-29T01:43:59.059Z,0.13
2023-03-29T01:45:23.452Z,0.12
2023-03-29T01:46:43.114Z,0.05
2023-03-29T01:48:24.574Z,0.00
2023-03-29T01:49:54.360Z,0.04
2023-03-29T01:51:01.247Z,0.00
2023-03-29T01:52:29.279Z,0.08
2023-03-29T01:53:46.996Z,0.05
2023-03-29T01:54:56.031Z,0.07
2023-03-29T01:56:04.491Z,0.06
2023-03-29T01:57:10.222Z,-0.08
2023-03-29T01:58:14.287Z,0.02
2023-03-29T01:59:22.570Z,0.14
2023-03-29T02:00:27.607Z,0.11
2023-03-29T02:01:35.061Z,0.13
2023-03-29T02:02:41.554Z,0.07
2023-03-29T02:03:49.701Z,0.03
2023-03-29T02:04:54.132Z,0.02
2023-03-29T02:05:58.048Z,-0.02
2023-03-29T02:07:00.679Z,-0.10
2023-03-29T02:08:05.683Z,-0.17
2023-03-29T02:09:07.444Z,-0.11
2023-03-29T02:10:11.358Z,-0.16
2023-03-29T02:11:13.517Z,-0.16
2023-03-29T02:12:16.500Z,-0.13
2023-03-29T02:13:19.157Z,-0.11
2023-03-29T02:14:21.179Z,-0.19
2023-03-29T02:15:23.493Z,-0.20
2023-03-29T02:16:24.998Z,-0.13
2023-03-29T02:17:28.085Z,-0.17
2023-03-29T02:18:30.557Z,-0.16
2023-03-29T02:19:32.487Z,-0.18
2023-03-29T02:20:38.951Z,-0.17
2023-03-29T02:21:51.815Z,-0.22
2023-03-29T02:23:18.035Z,-0.20
2023-03-29T02:24:23.511Z,-0.26
2023-03-29T02:25:25.883Z,-0.27
2023-03-29T02:26:28.958Z,-0.28
2023-03-29T02:27:30.583Z,-0.30
2023-03-29T02:28:33.211Z,-0.29
2023-03-29T02:29:34.648Z,-0.28
2023-03-29T02:30:54.587Z,-0.31
2023-03-29T02:32:26.406Z,-0.24
2023-03-29T02:33:38.987Z,-0.24
2023-03-29T02:34:49.228Z,-0.05
2023-03-29T02:36:00.063Z,-0.20
2023-03-29T02:37:06.692Z,-0.20
2023-03-29T02:38:11.368Z,-0.19
2023-03-29T02:39:15.370Z,-0.23
2023-03-29T02:40:18.015Z,-0.23
2023-03-29T02:41:20.701Z,-0.18
2023-03-29T02:42:23.113Z,-0.18
2023-03-29T02:43:27.441Z,-0.22
2023-03-29T02:44:32.031Z,-0.26
2023-03-29T02:45:36.476Z,-0.36
2023-03-29T02:46:38.375Z,-0.32
2023-03-29T02:47:46.402Z,-0.33
2023-03-29T02:48:50.736Z,-0.33
2023-03-29T02:49:52.976Z,-0.33
2023-03-29T02:50:58.317Z,-0.35
2023-03-29T02:52:08.886Z,-0.39
2023-03-29T02:53:17.015Z,-0.31
2023-03-29T02:54:20.485Z,-0.36
2023-03-29T02:55:24.748Z,-0.29
2023-03-29T02:56:26.154Z,-0.27
2023-03-29T02:57:28.688Z,-0.29
2023-03-29T02:58:31.600Z,-0.24
2023-03-29T02:59:33.506Z,-0.29
2023-03-29T03:00:38.194Z,-0.39
2023-03-29T03:01:42.618Z,-0.45
2023-03-29T03:02:44.435Z,-0.41
2023-03-29T03:03:47.835Z,-0.45
2023-03-29T03:04:49.991Z,-0.40
2023-03-29T03:05:52.446Z,-0.43
2023-03-29T03:06:53.949Z,-0.54
2023-03-29T03:07:55.337Z,-0.46
2023-03-29T03:08:56.754Z,-0.46
2023-03-29T03:09:58.553Z,-0.51
2023-03-29T03:11:00.154Z,-0.60
2023-03-29T03:12:01.832Z,-0.50
2023-03-29T03:13:03.559Z,-0.57
2023-03-29T03:14:06.712Z,-0.47
2023-03-29T03:15:08.706Z,-0.59
2023-03-29T03:16:10.244Z,-0.60
2023-03-29T03:17:11.832Z,-0.70
2023-03-29T03:18:13.267Z,-0.74
2023-03-29T03:19:15.515Z,-0.80
2023-03-29T03:20:16.913Z,-0.84
2023-03-29T03:21:18.806Z,-0.84
2023-03-29T03:22:20.385Z,-0.85
2023-03-29T03:23:22.832Z,-0.89
2023-03-29T03:24:24.302Z,-0.95
2023-03-29T03:25:25.753Z,-1.01
2023-03-29T03:26:29.910Z,-0.99
2023-03-29T03:27:31.398Z,-1.07
2023-03-29T03:28:33.125Z,-1.18
2023-03-29T03:29:36.371Z,-1.19
2023-03-29T03:30:38.525Z,-1.02
2023-03-29T03:31:42.936Z,-1.05
2023-03-29T03:32:44.707Z,-1.04
2023-03-29T03:33:46.562Z,-1.05
2023-03-29T03:34:47.976Z,-1.04
2023-03-29T03:35:49.595Z,-1.09
2023-03-29T03:36:51.007Z,-1.14
2023-03-29T03:37:52.469Z,-1.12
2023-03-29T03:38:53.911Z,-1.18
2023-03-29T03:39:55.360Z,-1.17
2023-03-29T03:40:57.452Z,-1.23
2023-03-29T03:41:58.866Z,-1.24
2023-03-29T03:43:00.526Z,-1.19
2023-03-29T03:44:01.955Z,-1.25
2023-03-29T03:45:03.508Z,-1.26
2023-03-29T03:46:05.439Z,-1.27
2023-03-29T03:47:07.843Z,-1.28
2023-03-29T03:48:09.637Z,-1.28
2023-03-29T03:49:11.137Z,-1.29
2023-03-29T03:50:13.702Z,-1.30
2023-03-29T03:51:15.329Z,-1.26
2023-03-29T03:52:17.766Z,-1.26
2023-03-29T03:53:20.074Z,-1.23
2023-03-29T03:54:21.487Z,-1.12
2023-03-29T03:55:23.862Z,-1.01
2023-03-29T03:56:25.794Z,-1.01
2023-03-29T03:57:27.494Z,-1.00
2023-03-29T03:58:28.902Z,-1.06
2023-03-29T03:59:30.514Z,-1.00
2023-03-29T04:00:33.267Z,-1.02
2023-03-29T04:01:35.433Z,-1.05
2023-03-29T04:02:37.247Z,-1.10
2023-03-29T04:03:39.166Z,-0.96
2023-03-29T04:04:41.281Z,-1.03
2023-03-29T04:05:47.086Z,-1.08
2023-03-29T04:06:48.627Z,-1.09
2023-03-29T04:07:50.032Z,-1.07
2023-03-29T04:08:51.589Z,-1.07
2023-03-29T04:09:53.076Z,-1.11
2023-03-29T04:10:56.750Z,-1.06
2023-03-29T04:11:59.914Z,-1.02
2023-03-29T04:13:02.393Z,-1.09
2023-03-29T04:14:04.310Z,-1.09
2023-03-29T04:15:07.040Z,-1.13
2023-03-29T04:16:08.673Z,-1.13
2023-03-29T04:17:10.102Z,-1.19
2023-03-29T04:18:12.382Z,-1.19
2023-03-29T04:19:14.299Z,-1.18
2023-03-29T04:20:16.540Z,-1.22
2023-03-29T04:21:19.458Z,-1.24
2023-03-29T04:22:22.657Z,-1.27
2023-03-29T04:23:24.211Z,-1.28
2023-03-29T04:24:25.770Z,-1.27
2023-03-29T04:25:27.212Z,-1.28
2023-03-29T04:26:28.618Z,-1.29
2023-03-29T04:27:30.021Z,-1.31
2023-03-29T04:28:31.406Z,-1.32
2023-03-29T04:29:32.809Z,-1.29
2023-03-29T04:30:34.396Z,-1.30
2023-03-29T04:31:35.900Z,-1.29
2023-03-29T04:32:37.766Z,-1.35
2023-03-29T04:33:39.435Z,-1.25
2023-03-29T04:34:40.895Z,-1.29
2023-03-29T04:35:42.529Z,-1.27
2023-03-29T04:36:44.053Z,-1.34
2023-03-29T04:37:45.505Z,-1.34
2023-03-29T04:38:47.893Z,-1.27
2023-03-29T04:39:50.150Z,-1.34
2023-03-29T04:40:51.580Z,-1.31
2023-03-29T04:41:52.987Z,-1.22
2023-03-29T04:42:54.542Z,-1.21
2023-03-29T04:43:56.192Z,-1.18
2023-03-29T04:44:58.398Z,-1.22
2023-03-29T04:45:59.858Z,-1.13
2023-03-29T04:47:01.421Z,-1.20
2023-03-29T04:48:02.953Z,-1.22
2023-03-29T04:49:05.750Z,-1.21
2023-03-29T04:50:08.352Z,-1.23
2023-03-29T04:51:09.804Z,-1.23
2023-03-29T04:52:11.461Z,-1.20
2023-03-29T04:53:12.894Z,-1.25
2023-03-29T04:54:14.310Z,-1.26
2023-03-29T04:55:15.766Z,-1.25
2023-03-29T04:56:17.653Z,-1.09
2023-03-29T04:57:19.110Z,-1.08
2023-03-29T04:58:22.492Z,-1.11
2023-03-29T04:59:25.372Z,-1.12
2023-03-29T05:00:29.350Z,-1.16
2023-03-29T05:01:30.888Z,-1.14
2023-03-29T05:02:33.099Z,-1.08
2023-03-29T05:03:35.519Z,-1.07
2023-03-29T05:04:36.982Z,-1.05
2023-03-29T05:05:38.440Z,-1.01
2023-03-29T05:06:40.730Z,-1.05
2023-03-29T05:07:42.173Z,-0.98
2023-03-29T05:08:44.536Z,-0.94
2023-03-29T05:09:45.990Z,-0.91
2023-03-29T05:10:47.614Z,-0.93
2023-03-29T05:11:49.916Z,-0.81
2023-03-29T05:12:53.897Z,-0.72
2023-03-29T05:13:57.184Z,-0.72
2023-03-29T05:14:58.942Z,-0.74
2023-03-29T05:16:00.778Z,-0.69
2023-03-29T05:17:02.859Z,-0.63
2023-03-29T05:18:04.324Z,-0.61
2023-03-29T05:19:05.811Z,-0.61
2023-03-29T05:20:11.637Z,-0.60
2023-03-29T05:21:13.274Z,-0.61
2023-03-29T05:22:15.236Z,-0.47
2023-03-29T05:23:17.633Z,-0.43
2023-03-29T05:24:20.089Z,-0.37
2023-03-29T05:25:21.891Z,-0.36
2023-03-29T05:26:23.447Z,-0.35
2023-03-29T05:27:25.406Z,-0.32
2023-03-29T05:28:27.113Z,-0.31
2023-03-29T05:29:28.507Z,-0.20
2023-03-29T05:30:29.946Z,-0.03
2023-03-29T05:31:32.540Z,-0.01
2023-03-29T05:32:36.828Z,0.01
2023-03-29T05:33:38.644Z,0.01
2023-03-29T05:34:40.163Z,0.05
2023-03-29T05:35:41.643Z,0.13
2023-03-29T05:36:45.292Z,0.22
2023-03-29T05:37:47.273Z,0.25
2023-03-29T05:38:49.812Z,0.31
2023-03-29T05:39:51.514Z,0.32
2023-03-29T05:40:53.046Z,0.33
2023-03-29T05:41:55.036Z,0.44
2023-03-29T05:42:56.598Z,0.53
2023-03-29T05:43:58.168Z,0.54
2023-03-29T05:44:59.678Z,0.56
2023-03-29T05:46:01.205Z,0.60
2023-03-29T05:47:02.640Z,0.61
2023-03-29T05:48:05.525Z,0.65
2023-03-29T05:49:07.157Z,0.68
2023-03-29T05:50:10.229Z,0.71
2023-03-29T05:51:11.773Z,0.73
2023-03-29T05:52:14.463Z,0.82
2023-03-29T05:53:19.461Z,0.84
2023-03-29T05:54:20.948Z,0.86
2023-03-29T05:55:22.418Z,0.93
2023-03-29T05:56:24.261Z,0.95
2023-03-29T05:57:25.852Z,1.03
2023-03-29T05:58:28.404Z,1.05
2023-03-29T05:59:29.902Z,1.06
2023-03-29T06:00:32.218Z,1.12
2023-03-29T06:01:34.428Z,1.15
2023-03-29T06:02:36.634Z,1.20
2023-03-29T06:03:38.524Z,1.22
2023-03-29T06:04:40.366Z,1.27
2023-03-29T06:05:41.759Z,1.35
2023-03-29T06:06:43.286Z,1.32
2023-03-29T06:07:45.252Z,1.39
2023-03-29T06:08:47.745Z,1.41
2023-03-29T06:09:49.150Z,1.46
2023-03-29T06:10:51.792Z,1.51
2023-03-29T06:11:53.615Z,1.57
2023-03-29T06:12:55.434Z,1.74
2023-03-29T06:13:57.509Z,1.73
2023-03-29T06:15:04.648Z,1.78
2023-03-29T06:16:06.668Z,1.81
2023-03-29T06:17:08.093Z,1.87
2023-03-29T06:18:09.863Z,1.91
2023-03-29T06:19:11.339Z,2.01
2023-03-29T06:20:14.185Z,2.06
2023-03-29T06:21:15.590Z,2.14
2023-03-29T06:22:17.061Z,2.21
2023-03-29T06:23:19.846Z,2.23
2023-03-29T06:24:21.314Z,2.41
2023-03-29T06:25:22.765Z,2.48
2023-03-29T06:26:24.861Z,2.55
2023-03-29T06:27:26.155Z,2.60
2023-03-29T06:28:27.662Z,2.65
2023-03-29T06:29:29.079Z,2.72
2023-03-29T06:30:30.480Z,2.79
2023-03-29T06:31:32.219Z,2.72
2023-03-29T06:32:34.628Z,2.74
2023-03-29T06:33:38.006Z,2.80
2023-03-29T06:34:39.520Z,2.81
2023-03-29T06:35:43.613Z,2.69
2023-03-29T06:36:45.777Z,2.73
2023-03-29T06:37:50.060Z,2.78
2023-03-29T06:38:52.380Z,2.92
2023-03-29T06:39:53.859Z,2.86
2023-03-29T06:41:03.937Z,2.86
2023-03-29T06:42:20.216Z,2.94
2023-03-29T06:43:22.923Z,2.96
2023-03-29T06:44:25.522Z,3.02
2023-03-29T06:45:29.516Z,3.00
2023-03-29T06:46:31.640Z,3.03
2023-03-29T06:47:33.158Z,3.12
2023-03-29T06:48:34.656Z,3.12
2023-03-29T06:49:36.202Z,3.17
2023-03-29T06:50:37.766Z,3.23
2023-03-29T06:51:40.126Z,3.24
2023-03-29T06:52:41.843Z,3.19
2023-03-29T06:53:43.246Z,3.30
2023-03-29T06:54:44.699Z,3.46
2023-03-29T06:55:46.124Z,3.52
2023-03-29T06:56:47.903Z,3.52
2023-03-29T06:57:49.386Z,3.50
2023-03-29T06:58:51.487Z,3.51
2023-03-29T06:59:53.813Z,3.52
2023-03-29T07:01:00.840Z,3.56
2023-03-29T07:02:02.757Z,3.65
2023-03-29T07:03:07.299Z,3.68
2023-03-29T07:04:09.299Z,3.81
2023-03-29T07:05:12.050Z,3.89
2023-03-29T07:06:14.909Z,3.85
2023-03-29T07:07:22.509Z,3.88
2023-03-29T07:08:30.873Z,3.89
2023-03-29T07:09:32.427Z,3.97
2023-03-29T07:10:39.347Z,3.97
2023-03-29T07:11:41.617Z,4.04
2023-03-29T07:12:44.599Z,4.04
2023-03-29T07:13:46.203Z,4.24
2023-03-29T07:14:48.448Z,4.19
2023-03-29T07:15:49.879Z,4.32
2023-03-29T07:16:52.193Z,4.18
2023-03-29T07:17:54.382Z,4.25
2023-03-29T07:18:55.889Z,4.35
2023-03-29T07:19:57.703Z,4.41
2023-03-29T07:20:59.227Z,4.38
2023-03-29T07:22:00.892Z,4.54
2023-03-29T07:23:02.359Z,4.44
2023-03-29T07:24:04.737Z,4.53
2023-03-29T07:25:09.282Z,4.57
2023-03-29T07:26:11.878Z,4.63
2023-03-29T07:27:13.317Z,4.78
2023-03-29T07:28:14.962Z,4.56
2023-03-29T07:29:16.380Z,4.62
2023-03-29T07:30:22.084Z,4.60
2023-03-29T07:31:23.528Z,4.71
2023-03-29T07:32:25.021Z,4.79
2023-03-29T07:33:26.639Z,5.00
2023-03-29T07:34:29.928Z,4.89
2023-03-29T07:35:32.626Z,4.85
2023-03-29T07:36:34.864Z,4.87
2023-03-29T07:37:37.381Z,4.95
2023-03-29T07:38:38.862Z,5.07
2023-03-29T07:39:40.344Z,5.11
2023-03-29T07:40:41.787Z,5.07
2023-03-29T07:41:43.198Z,5.15
2023-03-29T07:42:48.906Z,5.11
2023-03-29T07:43:51.766Z,5.29
2023-03-29T07:44:54.179Z,5.21
2023-03-29T07:45:55.973Z,5.37
2023-03-29T07:46:59.906Z,5.34
2023-03-29T07:48:02.097Z,5.39
2023-03-29T07:49:04.264Z,5.60
2023-03-29T07:50:07.425Z,5.68
2023-03-29T07:51:08.964Z,5.72
2023-03-29T07:52:10.509Z,5.85
2023-03-29T07:53:12.485Z,5.96
2023-03-29T07:54:13.808Z,5.97
2023-03-29T07:55:15.425Z,5.97
2023-03-29T07:56:16.859Z,6.15
2023-03-29T07:57:18.334Z,6.10
2023-03-29T07:58:20.185Z,6.07
2023-03-29T07:59:21.601Z,6.03
2023-03-29T08:00:24.719Z,6.10
2023-03-29T08:01:26.429Z,6.17
2023-03-29T08:02:28.972Z,6.27
2023-03-29T08:03:30.473Z,6.16
2023-03-29T08:04:32.221Z,6.40
2023-03-29T08:05:41.244Z,6.35
2023-03-29T08:06:43.459Z,6.30
2023-03-29T08:07:46.715Z,6.30
2023-03-29T08:08:48.144Z,6.47
2023-03-29T08:09:49.602Z,6.50
2023-03-29T08:10:51.865Z,6.50
2023-03-29T08:11:53.581Z,6.57
2023-03-29T08:12:55.247Z,6.51
2023-03-29T08:13:57.495Z,6.54
2023-03-29T08:14:58.904Z,6.52
2023-03-29T08:16:00.307Z,6.44
2023-03-29T08:17:01.758Z,6.62
2023-03-29T08:18:03.575Z,6.52
2023-03-29T08:19:05.114Z,6.46
2023-03-29T08:20:09.694Z,6.58
2023-03-29T08:21:11.185Z,6.64
2023-03-29T08:22:12.610Z,6.62
2023-03-29T08:23:14.039Z,6.54
2023-03-29T08:24:15.451Z,6.70
2023-03-29T08:25:17.024Z,6.85
2023-03-29T08:26:18.658Z,6.89
2023-03-29T08:27:20.180Z,6.99
2023-03-29T08:28:22.251Z,7.11
2023-03-29T08:29:23.752Z,7.28
2023-03-29T08:30:25.650Z,7.10
2023-03-29T08:31:27.191Z,7.17
2023-03-29T08:32:28.744Z,7.39
2023-03-29T08:33:30.231Z,7.41
2023-03-29T08:34:31.861Z,7.31
2023-03-29T08:35:33.419Z,7.26
2023-03-29T08:36:34.858Z,7.40
2023-03-29T08:37:37.498Z,7.23
2023-03-29T08:38:38.918Z,7.32
2023-03-29T08:39:40.424Z,7.25
2023-03-29T08:40:42.295Z,7.30
2023-03-29T08:42:08.831Z,7.45
2023-03-29T08:43:45.848Z,7.69
2023-03-29T08:45:02.641Z,7.87
2023-03-29T08:46:35.083Z,7.73
2023-03-29T08:47:59.222Z,7.88
2023-03-29T08:49:04.502Z,7.92
2023-03-29T08:50:07.476Z,7.92
2023-03-29T08:51:21.436Z,7.85
2023-03-29T08:52:40.203Z,7.79
2023-03-29T08:53:50.457Z,7.82
2023-03-29T08:54:55.935Z,7.89
2023-03-29T08:56:01.760Z,7.88
2023-03-29T08:57:12.879Z,7.74
2023-03-29T08:58:21.193Z,7.84
2023-03-29T08:59:31.960Z,7.90
2023-03-29T09:00:42.821Z,7.81
2023-03-29T09:01:46.781Z,8.04
2023-03-29T09:02:53.804Z,8.16
2023-03-29T09:04:03.215Z,7.89
2023-03-29T09:05:28.980Z,7.79
2023-03-29T09:06:30.817Z,7.94
2023-03-29T09:07:32.544Z,7.94
2023-03-29T09:08:43.851Z,8.10
2023-03-29T09:09:45.539Z,8.24
2023-03-29T09:10:56.880Z,8.46
2023-03-29T09:12:09.372Z,8.36
2023-03-29T09:13:23.137Z,8.68
2023-03-29T09:14:47.683Z,9.01
2023-03-29T09:15:54.402Z,9.30
2023-03-29T09:17:07.468Z,9.51
2023-03-29T09:18:19.119Z,9.34
2023-03-29T09:19:42.329Z,8.99
2023-03-29T09:21:00.280Z,8.95
2023-03-29T09:22:39.177Z,9.24
2023-03-29T09:24:22.329Z,8.99
2023-03-29T09:25:53.067Z,8.57
2023-03-29T09:27:05.159Z,8.70
2023-03-29T09:28:17.568Z,8.77
2023-03-29T09:29:31.062Z,9.02
2023-03-29T09:30:42.787Z,8.81
2023-03-29T09:31:44.836Z,8.70
2023-03-29T09:33:12.393Z,8.93
2023-03-29T09:34:23.564Z,9.03
2023-03-29T09:35:31.067Z,9.10
2023-03-29T09:36:45.271Z,9.35
2023-03-29T09:37:49.044Z,9.74
2023-03-29T09:38:54.193Z,10.05
2023-03-29T09:39:57.498Z,10.04
2023-03-29T09:41:06.638Z,9.84
2023-03-29T09:42:12.359Z,9.91
2023-03-29T09:43:18.339Z,9.59
2023-03-29T09:44:30.886Z,9.29
2023-03-29T09:45:35.258Z,9.54
2023-03-29T09:46:44.003Z,9.47
2023-03-29T09:48:18.297Z,10.02
2023-03-29T09:49:32.952Z,10.18
2023-03-29T09:50:41.150Z,9.93
2023-03-29T09:51:45.027Z,10.15
2023-03-29T09:52:48.691Z,10.02
2023-03-29T09:53:50.439Z,10.28
2023-03-29T09:54:52.174Z,10.35
2023-03-29T09:55:55.293Z,10.61
2023-03-29T09:56:56.821Z,10.23
2023-03-29T09:58:01.978Z,10.15
2023-03-29T09:59:03.398Z,10.38
2023-03-29T10:00:06.088Z,10.65
2023-03-29T10:01:10.327Z,10.75
2023-03-29T10:02:13.595Z,11.01
2023-03-29T10:03:27.210Z,11.23
2023-03-29T10:04:28.634Z,11.06
2023-03-29T10:05:34.581Z,10.79
2023-03-29T10:06:38.812Z,10.35
2023-03-29T10:07:45.531Z,10.81
2023-03-29T10:08:51.862Z,11.24
2023-03-29T10:09:55.911Z,11.39
2023-03-29T10:10:59.475Z,11.45
2023-03-29T10:12:05.591Z,11.28
2023-03-29T10:13:13.470Z,10.91
2023-03-29T10:14:19.479Z,11.23
2023-03-29T10:15:29.249Z,11.37
2023-03-29T10:16:38.339Z,11.81
2023-03-29T10:17:40.988Z,12.13
2023-03-29T10:18:43.484Z,12.29
2023-03-29T10:19:52.787Z,12.25
2023-03-29T10:20:59.923Z,12.45
2023-03-29T10:22:06.424Z,12.32
2023-03-29T10:23:09.186Z,12.70
2023-03-29T10:24:10.636Z,12.87
2023-03-29T10:25:18.162Z,13.03
2023-03-29T10:26:19.529Z,12.89
2023-03-29T10:27:29.402Z,13.13
2023-03-29T10:28:32.569Z,12.87
2023-03-29T10:29:38.529Z,13.17
2023-03-29T10:30:40.206Z,13.31
2023-03-29T10:31:43.083Z,13.19
2023-03-29T10:32:44.777Z,13.34
2023-03-29T10:33:52.455Z,12.87
2023-03-29T10:34:55.183Z,12.75
2023-03-29T10:35:58.399Z,12.37
2023-03-29T10:37:01.984Z,11.50
2023-03-29T10:38:07.601Z,11.88
2023-03-29T10:39:13.375Z,12.01
2023-03-29T10:40:35.205Z,12.48
2023-03-29T10:41:36.875Z,12.79
2023-03-29T10:42:47.952Z,12.83
2023-03-29T10:43:51.626Z,12.27
2023-03-29T10:44:56.242Z,12.28
2023-03-29T10:46:08.160Z,11.95
2023-03-29T10:47:09.590Z,12.10
2023-03-29T10:48:16.603Z,12.26
2023-03-29T10:49:20.417Z,12.53
2023-03-29T10:50:21.840Z,13.05
2023-03-29T10:51:24.624Z,12.88
2023-03-29T10:52:26.551Z,12.64
2023-03-29T10:53:35.390Z,12.66
2023-03-29T10:54:37.281Z,12.67
2023-03-29T10:55:54.197Z,12.36
2023-03-29T10:57:00.327Z,12.38
2023-03-29T10:58:24.520Z,12.32
2023-03-29T10:59:29.489Z,12.56
2023-03-29T11:00:49.154Z,12.20
2023-03-29T11:02:08.056Z,12.46
2023-03-29T11:03:20.961Z,12.09
2023-03-29T11:04:42.075Z,11.50
2023-03-29T11:05:58.633Z,10.94
2023-03-29T11:07:22.578Z,10.51
2023-03-29T11:08:28.435Z,10.91
2023-03-29T11:09:37.350Z,10.67
2023-03-29T11:11:00.016Z,10.81
2023-03-29T11:12:28.541Z,11.10
2023-03-29T11:14:13.527Z,11.06
2023-03-29T11:15:43.742Z,11.29
2023-03-29T11:16:57.154Z,11.58
2023-03-29T11:17:58.558Z,11.82
2023-03-29T11:19:06.725Z,11.61
2023-03-29T11:20:16.288Z,11.94
2023-03-29T11:21:45.692Z,11.82
2023-03-29T11:22:55.943Z,11.80
2023-03-29T11:24:31.263Z,11.59
2023-03-29T11:25:40.608Z,11.27
2023-03-29T11:27:17.047Z,11.04
2023-03-29T11:28:35.263Z,11.32
2023-03-29T11:29:49.007Z,11.41
2023-03-29T11:30:59.335Z,11.71
2023-03-29T11:32:07.236Z,11.98
2023-03-29T11:33:20.800Z,12.07
2023-03-29T11:34:37.223Z,12.31
2023-03-29T11:36:14.579Z,12.23
2023-03-29T11:37:25.522Z,11.80
2023-03-29T11:38:32.258Z,11.88
2023-03-29T11:40:09.126Z,11.73
2023-03-29T11:41:14.735Z,12.28
2023-03-29T11:42:24.033Z,11.73
2023-03-29T11:43:35.934Z,11.92
2023-03-29T11:44:40.734Z,11.66
2023-03-29T11:45:49.064Z,11.94
2023-03-29T11:46:57.037Z,11.95
2023-03-29T11:48:02.301Z,11.91
2023-03-29T11:49:21.433Z,12.04
2023-03-29T11:50:45.446Z,12.16
2023-03-29T11:51:54.366Z,12.41
2023-03-29T11:53:05.013Z,12.43
2023-03-29T11:54:28.377Z,12.49
2023-03-29T11:55:36.530Z,11.89
2023-03-29T11:56:44.259Z,11.63
2023-03-29T11:58:08.592Z,11.39
2023-03-29T11:59:15.954Z,11.27
2023-03-29T12:00:21.431Z,11.18
2023-03-29T12:01:33.392Z,11.06
2023-03-29T12:02:41.149Z,10.94
2023-03-29T12:03:47.260Z,11.08
2023-03-29T12:04:52.125Z,10.55
2023-03-29T12:05:59.986Z,10.67
2023-03-29T12:07:15.192Z,10.87
2023-03-29T12:08:31.266Z,11.12
2023-03-29T12:09:49.934Z,11.35
2023-03-29T12:11:02.197Z,11.27
2023-03-29T12:12:23.298Z,11.44
2023-03-29T12:13:30.461Z,11.24
2023-03-29T12:15:01.152Z,11.35
2023-03-29T12:16:18.182Z,10.97
2023-03-29T12:17:27.044Z,10.81
2023-03-29T12:18:42.038Z,11.22
2023-03-29T12:19:50.401Z,11.24
2023-03-29T12:20:58.581Z,11.34
2023-03-29T12:22:01.344Z,11.60
2023-03-29T12:23:03.010Z,11.73
2023-03-29T12:24:04.851Z,11.97
2023-03-29T12:25:12.691Z,11.83
2023-03-29T12:26:40.488Z,11.65
2023-03-29T12:28:01.750Z,11.62
2023-03-29T12:29:11.966Z,11.19
2023-03-29T12:30:29.129Z,10.73
2023-03-29T12:31:54.987Z,11.44
2023-03-29T12:33:16.107Z,11.17
2023-03-29T12:34:26.444Z,10.93
2023-03-29T12:35:59.450Z,11.29
2023-03-29T12:37:31.015Z,11.04
2023-03-29T12:38:32.897Z,11.49
2023-03-29T12:39:37.047Z,11.14
2023-03-29T12:40:45.669Z,11.04
2023-03-29T12:41:51.560Z,11.23
2023-03-29T12:43:01.126Z,11.14
2023-03-29T12:44:04.580Z,10.92
2023-03-29T12:45:12.532Z,10.83
2023-03-29T12:46:13.880Z,10.84
2023-03-29T12:47:23.442Z,11.19
2023-03-29T12:48:27.657Z,11.46
2023-03-29T12:49:38.997Z,11.36
2023-03-29T12:50:48.905Z,11.08
2023-03-29T12:51:51.231Z,11.19
2023-03-29T12:52:53.121Z,11.66
2023-03-29T12:54:08.475Z,11.14
2023-03-29T12:55:42.316Z,11.20
2023-03-29T12:56:53.109Z,11.06
2023-03-29T12:58:02.245Z,11.27
2023-03-29T12:59:38.767Z,11.25
2023-03-29T13:00:40.222Z,10.92
2023-03-29T13:01:57.872Z,10.95
2023-03-29T13:03:23.187Z,11.13
2023-03-29T13:04:38.743Z,11.08
2023-03-29T13:05:40.258Z,11.39
2023-03-29T13:07:03.083Z,11.35
2023-03-29T13:08:21.549Z,11.21
2023-03-29T13:09:29.664Z,11.28
2023-03-29T13:10:41.212Z,10.95
2023-03-29T13:11:42.828Z,10.87
2023-03-29T13:12:49.522Z,11.07
2023-03-29T13:13:52.274Z,11.62
2023-03-29T13:15:00.589Z,11.60
2023-03-29T13:16:21.539Z,11.73
2023-03-29T13:17:26.135Z,11.52
2023-03-29T13:18:43.676Z,11.48
2023-03-29T13:20:18.804Z,11.50
2023-03-29T13:21:27.738Z,11.90
2023-03-29T13:22:44.241Z,11.85
2023-03-29T13:24:21.590Z,11.94
2023-03-29T13:25:34.406Z,11.84
2023-03-29T13:26:50.229Z,11.84
2023-03-29T13:28:23.182Z,11.91
2023-03-29T13:29:47.929Z,11.86
2023-03-29T13:30:58.366Z,11.94
2023-03-29T13:32:18.607Z,11.61
2023-03-29T13:33:44.745Z,11.28
2023-03-29T13:34:51.485Z,11.39
2023-03-29T13:36:37.555Z,11.31
2023-03-29T13:38:09.744Z,11.20
2023-03-29T13:39:19.536Z,11.30
2023-03-29T13:40:26.523Z,11.38
2023-03-29T13:41:39.865Z,11.33
2023-03-29T13:42:42.124Z,11.25
2023-03-29T13:43:44.509Z,11.08
2023-03-29T13:44:49.051Z,11.17
2023-03-29T13:45:56.714Z,11.09
2023-03-29T13:47:13.845Z,11.09
2023-03-29T13:48:30.146Z,10.83
2023-03-29T13:49:34.274Z,10.94
2023-03-29T13:50:40.296Z,11.04
2023-03-29T13:51:48.706Z,11.18
2023-03-29T13:53:05.851Z,11.30
2023-03-29T13:54:45.838Z,11.33
2023-03-29T13:55:51.032Z,11.32
2023-03-29T13:57:03.804Z,11.31
2023-03-29T13:58:17.278Z,11.53
2023-03-29T13:59:25.061Z,11.52
2023-03-29T14:00:32.746Z,11.42
2023-03-29T14:01:47.436Z,11.14
2023-03-29T14:02:54.669Z,11.20
2023-03-29T14:03:57.554Z,11.24
2023-03-29T14:05:02.015Z,11.07
2023-03-29T14:06:04.841Z,10.94
2023-03-29T14:07:08.178Z,10.80
2023-03-29T14:08:36.467Z,11.03
2023-03-29T14:09:43.304Z,10.94
2023-03-29T14:10:45.777Z,10.88
2023-03-29T14:11:47.775Z,10.91
2023-03-29T14:12:49.640Z,10.91
2023-03-29T14:13:57.010Z,11.00
2023-03-29T14:15:01.861Z,10.89
2023-03-29T14:16:08.964Z,10.72
2023-03-29T14:17:22.767Z,10.71
2023-03-29T14:18:27.580Z,10.68
2023-03-29T14:19:36.460Z,10.65
2023-03-29T14:20:38.009Z,10.80
2023-03-29T14:21:41.253Z,10.69
2023-03-29T14:22:44.172Z,10.66
2023-03-29T14:23:47.742Z,10.61
2023-03-29T14:24:54.324Z,10.69
2023-03-29T14:26:24.145Z,10.71
2023-03-29T14:27:30.158Z,10.72
2023-03-29T14:28:31.910Z,10.68
2023-03-29T14:29:34.779Z,10.58
2023-03-29T14:30:36.240Z,10.59